Time;durP1;ratioP1;P1;durP2;ratioP2;P2;SDS_P1;SDS_P2;PMS_P1;PMS_P2;Temp;Humidity;BMP_temperature;BMP_pressure;BME280_temperature;BME280_humidity;BME280_pressure;Samples;Min_cycle;Max_cycle;Signal;HPM_P1;HPM_P2
2021/09/10 00:01:45;;;;;;;6.80;4.70;;;;;;;8.63;71.34;97749.34;116267;1182;68245;-69
2021/09/10 00:04:15;;;;;;;3.80;2.70;;;;;;;8.62;72.00;97752.23;116243;1182;68417;-69
2021/09/10 00:06:45;;;;;;;8.00;5.60;;;;;;;8.59;71.70;97751.85;116264;1181;59973;-69
2021/09/10 00:09:19;;;;;;;9.00;5.20;;;;;;;8.55;73.87;97755.57;116243;1182;59539;-69
2021/09/10 00:11:49;;;;;;;7.80;4.20;;;;;;;8.52;72.93;97752.67;116281;1182;71394;-68
2021/09/10 00:14:18;;;;;;;8.60;6.10;;;;;;;8.49;74.51;97752.64;116267;1182;69114;-69
2021/09/10 00:16:48;;;;;;;3.70;2.60;;;;;;;8.44;75.45;97756.77;116230;1182;68064;-68
2021/09/10 00:19:19;;;;;;;7.30;4.60;;;;;;;8.42;72.42;97755.33;116253;1181;59530;-71
2021/09/10 00:21:48;;;;;;;5.80;3.70;;;;;;;8.38;72.79;97754.86;116365;1179;59501;-69
2021/09/10 00:24:18;;;;;;;8.80;5.70;;;;;;;8.34;71.79;97755.73;116344;1182;70489;-69
2021/09/10 00:26:47;;;;;;;7.20;4.10;;;;;;;8.30;73.16;97754.75;116335;1182;69196;-67
2021/09/10 00:29:17;;;;;;;7.50;5.20;;;;;;;8.27;73.13;97756.52;116344;1182;68418;-69
2021/09/10 00:31:47;;;;;;;6.90;4.10;;;;;;;8.23;74.17;97750.15;116351;1181;59518;-70
2021/09/10 00:34:16;;;;;;;9.00;5.00;;;;;;;8.21;73.95;97750.11;116310;1178;59571;-69
2021/09/10 00:36:46;;;;;;;9.40;5.00;;;;;;;8.18;74.17;97750.95;116208;1182;70920;-68
2021/09/10 00:39:21;;;;;;;7.20;5.30;;;;;;;8.16;73.13;97751.95;116235;1182;68464;-69
2021/09/10 00:41:50;;;;;;;6.20;3.90;;;;;;;8.14;76.52;97754.98;116425;1181;69641;-69
2021/09/10 00:44:20;;;;;;;7.20;4.40;;;;;;;8.12;76.97;97750.27;116314;1178;59564;-70
2021/09/10 00:46:50;;;;;;;5.70;4.20;;;;;;;8.09;75.40;97754.94;116234;1182;59538;-70
2021/09/10 00:49:20;;;;;;;6.80;3.90;;;;;;;8.07;75.35;97755.39;116289;1182;69536;-69
2021/09/10 00:51:51;;;;;;;4.30;3.00;;;;;;;8.06;74.04;97756.30;116255;1182;69169;-69
2021/09/10 00:54:20;;;;;;;;;;;;;;;8.07;72.95;97752.10;116216;1182;69051;-65
2021/09/10 00:56:50;;;;;;;6.10;4.00;;;;;;;8.04;75.93;97753.86;116372;1179;59539;-70
2021/09/10 00:59:20;;;;;;;8.00;5.10;;;;;;;8.00;75.80;97752.66;116319;1180;59552;-69
2021/09/10 01:01:49;;;;;;;7.20;5.00;;;;;;;7.96;77.12;97755.70;116387;1181;70428;-69
2021/09/10 01:04:25;;;;;;;5.80;3.50;;;;;;;7.91;75.55;97754.41;116395;1179;68995;-68
2021/09/10 01:06:56;;;;;;;5.70;4.60;;;;;;;7.89;75.02;97751.05;116473;1180;69172;-68
2021/09/10 01:09:28;;;;;;;6.50;4.20;;;;;;;7.88;75.55;97754.05;116341;1178;59536;-69
2021/09/10 01:11:58;;;;;;;8.00;5.20;;;;;;;7.87;75.74;97755.34;116415;1179;59544;-69
2021/09/10 01:14:28;;;;;;;6.40;4.60;;;;;;;7.86;75.44;97754.52;116306;1178;71328;-70
2021/09/10 01:16:57;;;;;;;8.30;5.50;;;;;;;7.84;77.23;97756.20;116374;1182;69191;-70
2021/09/10 01:19:30;;;;;;;8.90;5.50;;;;;;;7.81;75.77;97755.51;116390;1181;68739;-66
2021/09/10 01:22:04;;;;;;;5.70;3.70;;;;;;;7.78;77.48;97755.48;116341;1180;59530;-68
2021/09/10 01:24:37;;;;;;;6.70;4.40;;;;;;;7.76;75.15;97761.66;116256;1181;59537;-69
2021/09/10 01:27:08;;;;;;;8.00;4.40;;;;;;;7.75;75.80;97761.92;116259;1181;71320;-69
2021/09/10 01:29:37;;;;;;;;;;;;;;;7.73;75.10;97758.73;116224;1181;68987;-70
2021/09/10 01:32:10;;;;;;;5.60;3.40;;;;;;;7.70;75.16;97759.58;116326;1179;69227;-69
2021/09/10 01:34:40;;;;;;;6.00;3.70;;;;;;;7.67;74.21;97758.86;116186;1179;59504;-68
2021/09/10 01:37:10;;;;;;;6.70;3.90;;;;;;;7.66;75.39;97755.27;116314;1180;59536;-68
2021/09/10 01:39:39;;;;;;;5.90;4.00;;;;;;;7.63;74.57;97752.81;116418;1180;71298;-69
2021/09/10 01:42:09;;;;;;;6.30;4.30;;;;;;;7.62;74.43;97753.92;116246;1181;68415;-68
2021/09/10 01:44:39;;;;;;;7.30;5.20;;;;;;;7.59;75.89;97753.90;116235;1182;68397;-68
2021/09/10 01:47:09;;;;;;;6.50;4.50;;;;;;;7.58;77.19;97751.73;116218;1182;59466;-68
2021/09/10 01:49:39;;;;;;;;;;;;;;;7.56;75.63;97755.29;116261;1180;59478;-68
2021/09/10 01:52:09;;;;;;;7.90;5.20;;;;;;;7.55;78.29;97755.20;116259;1181;71164;-68
2021/09/10 01:54:38;;;;;;;7.60;4.30;;;;;;;7.53;77.81;97751.31;116249;1178;69142;-69
2021/09/10 01:57:09;;;;;;;5.60;3.60;;;;;;;7.52;75.65;97751.73;116257;1182;68354;-68
2021/09/10 01:59:43;;;;;;;;;;;;;;;7.51;75.35;97751.79;116229;1181;59576;-68
2021/09/10 02:02:13;;;;;;;7.40;4.40;;;;;;;7.48;76.02;97753.33;116508;1179;59542;-68
2021/09/10 02:04:43;;;;;;;7.60;4.30;;;;;;;7.46;73.78;97754.99;116350;1180;70602;-69
2021/09/10 02:07:14;;;;;;;11.10;6.70;;;;;;;7.44;76.41;97756.71;116235;1181;69157;-68
2021/09/10 02:09:45;;;;;;;7.50;4.60;;;;;;;7.40;77.04;97755.35;116249;1182;69017;-69
2021/09/10 02:12:15;;;;;;;7.00;4.60;;;;;;;7.37;75.99;97758.06;116264;1181;59531;-69
2021/09/10 02:14:46;;;;;;;7.10;5.20;;;;;;;7.35;75.95;97759.09;116174;1182;59503;-68
2021/09/10 02:17:17;;;;;;;6.30;4.30;;;;;;;7.31;76.37;97756.66;116229;1181;70428;-68
2021/09/10 02:19:47;;;;;;;8.40;5.40;;;;;;;7.30;76.56;97760.73;116219;1181;68965;-68
2021/09/10 02:22:18;;;;;;;9.70;5.60;;;;;;;7.27;80.10;97758.83;116149;1182;69169;-68
2021/09/10 02:24:47;;;;;;;;;;;;;;;7.25;79.49;97759.64;116241;1180;59546;-68
2021/09/10 02:27:18;;;;;;;4.80;3.10;;;;;;;7.22;77.85;97757.35;116265;1182;59462;-67
2021/09/10 02:29:47;;;;;;;4.70;2.90;;;;;;;7.21;76.60;97755.69;116243;1182;70611;-68
2021/09/10 02:32:18;;;;;;;7.00;3.60;;;;;;;7.18;75.51;97753.90;116280;1181;69148;-68
2021/09/10 02:34:48;;;;;;;8.70;4.80;;;;;;;7.16;78.53;97752.66;116246;1182;69319;-69
2021/09/10 02:37:18;;;;;;;5.30;3.60;;;;;;;7.14;77.77;97749.11;116312;1181;59533;-69
2021/09/10 02:39:49;;;;;;;7.60;4.50;;;;;;;7.17;75.74;97751.89;116241;1178;59538;-68
2021/09/10 02:42:19;;;;;;;5.60;3.50;;;;;;;7.21;76.83;97754.80;116265;1182;70616;-68
2021/09/10 02:44:48;;;;;;;;;;;;;;;7.21;76.93;97752.91;116295;1182;69147;-69
2021/09/10 02:47:18;;;;;;;9.10;5.40;;;;;;;7.20;77.06;97752.27;116282;1182;69265;-68
2021/09/10 02:49:48;;;;;;;5.80;4.70;;;;;;;7.18;78.21;97751.02;116238;1181;59508;-68
2021/09/10 02:52:18;;;;;;;6.70;4.20;;;;;;;7.14;77.69;97753.07;116383;1181;59499;-70
2021/09/10 02:54:50;;;;;;;3.20;2.00;;;;;;;7.12;77.15;97753.89;116318;1180;71327;-69
2021/09/10 02:57:20;;;;;;;7.40;3.80;;;;;;;7.11;76.03;97754.79;116284;1182;69190;-68
2021/09/10 02:59:50;;;;;;;6.70;3.50;;;;;;;7.10;76.71;97755.53;116272;1180;69226;-69
2021/09/10 03:02:20;;;;;;;5.60;3.60;;;;;;;7.09;76.44;97755.27;116537;1180;59500;-68
2021/09/10 03:04:51;;;;;;;5.10;3.70;;;;;;;7.08;76.90;97755.84;116269;1181;59546;-68
2021/09/10 03:07:21;;;;;;;6.90;4.60;;;;;;;7.07;77.54;97754.35;116164;1182;70386;-68
2021/09/10 03:09:52;;;;;;;5.30;3.30;;;;;;;7.02;77.38;97753.38;116239;1178;68630;-68
2021/09/10 03:12:21;;;;;;;4.70;3.40;;;;;;;6.98;77.71;97753.07;116181;1180;68420;-68
2021/09/10 03:14:51;;;;;;;5.20;3.30;;;;;;;6.94;77.01;97754.33;116160;1182;59576;-69
2021/09/10 03:17:21;;;;;;;6.70;3.30;;;;;;;6.88;76.99;97752.52;116263;1182;59542;-68
2021/09/10 03:19:51;;;;;;;;;;;;;;;6.84;76.43;97751.23;116265;1182;70560;-69
2021/09/10 03:22:21;;;;;;;6.30;3.50;;;;;;;6.79;76.39;97755.13;116508;1181;68209;-66
2021/09/10 03:24:51;;;;;;;4.40;3.30;;;;;;;6.74;76.34;97756.42;116396;1181;68417;-68
2021/09/10 03:27:20;;;;;;;7.60;4.70;;;;;;;6.70;78.47;97758.73;116326;1178;59546;-68
2021/09/10 03:29:50;;;;;;;5.50;3.90;;;;;;;6.65;77.76;97757.41;116396;1180;59534;-69
2021/09/10 03:32:20;;;;;;;6.80;4.40;;;;;;;6.61;76.90;97754.13;116445;1181;71314;-68
2021/09/10 03:34:50;;;;;;;5.50;3.90;;;;;;;6.58;77.04;97756.04;116357;1182;68372;-69
2021/09/10 03:37:20;;;;;;;5.90;4.40;;;;;;;6.56;77.89;97758.73;116354;1181;69206;-69
2021/09/10 03:39:50;;;;;;;6.00;3.10;;;;;;;6.53;78.91;97762.70;116267;1181;59628;-68
2021/09/10 03:42:20;;;;;;;8.50;4.90;;;;;;;6.51;77.70;97761.08;116454;1181;59497;-69
2021/09/10 03:44:50;;;;;;;6.60;4.60;;;;;;;6.48;79.53;97766.08;116482;1182;70531;-68
2021/09/10 03:47:19;;;;;;;8.70;5.10;;;;;;;6.45;78.18;97769.48;116374;1182;69165;-70
2021/09/10 03:49:49;;;;;;;9.50;4.30;;;;;;;6.43;79.99;97771.67;116447;1179;68333;-68
2021/09/10 03:52:19;;;;;;;5.90;3.70;;;;;;;6.41;78.64;97770.92;116421;1181;59530;-67
2021/09/10 03:54:49;;;;;;;5.60;2.80;;;;;;;6.39;77.68;97772.24;116510;1181;59533;-67
2021/09/10 03:57:19;;;;;;;5.50;3.70;;;;;;;6.37;76.54;97777.17;116504;1182;71372;-66
2021/09/10 03:59:49;;;;;;;6.00;3.50;;;;;;;6.35;76.53;97770.88;116408;1182;68248;-67
2021/09/10 04:02:20;;;;;;;5.30;3.50;;;;;;;6.34;76.52;97781.15;116468;1181;68718;-68
2021/09/10 04:04:50;;;;;;;5.40;3.40;;;;;;;6.34;76.87;97782.88;116427;1181;59539;-69
2021/09/10 04:07:20;;;;;;;5.30;4.00;;;;;;;6.34;76.74;97784.60;116260;1182;59543;-69
2021/09/10 04:09:50;;;;;;;5.90;3.80;;;;;;;6.36;77.89;97788.46;116433;1181;69562;-68
2021/09/10 04:12:21;;;;;;;5.70;3.90;;;;;;;6.40;77.06;97787.78;116458;1182;68441;-68
2021/09/10 04:14:51;;;;;;;7.20;4.70;;;;;;;6.45;76.37;97783.54;116379;1182;69215;-69
2021/09/10 04:17:21;;;;;;;5.90;3.50;;;;;;;6.50;77.46;97785.50;116240;1182;59537;-69
2021/09/10 04:19:50;;;;;;;6.30;4.00;;;;;;;6.59;77.30;97783.68;116296;1181;59524;-67
2021/09/10 04:22:20;;;;;;;7.70;5.00;;;;;;;6.71;76.81;97782.05;116390;1178;70344;-68
2021/09/10 04:24:49;;;;;;;9.70;6.40;;;;;;;6.82;76.98;97782.70;116238;1182;69178;-69
2021/09/10 04:27:19;;;;;;;7.20;3.50;;;;;;;6.91;76.41;97782.05;116231;1182;69423;-67
2021/09/10 04:29:49;;;;;;;4.70;3.20;;;;;;;7.11;75.85;97783.04;116246;1182;59520;-69
2021/09/10 04:32:18;;;;;;;5.30;3.30;;;;;;;7.39;75.60;97784.67;116247;1182;59537;-68
2021/09/10 04:34:49;;;;;;;7.20;4.40;;;;;;;7.66;75.20;97786.34;116253;1182;70629;-67
2021/09/10 04:37:18;;;;;;;6.80;4.30;;;;;;;7.95;74.49;97793.58;116238;1182;69048;-68
2021/09/10 04:39:48;;;;;;;5.30;3.40;;;;;;;8.24;73.52;97794.56;116221;1181;68292;-68
2021/09/10 04:42:18;;;;;;;5.60;3.50;;;;;;;8.56;73.59;97793.91;116153;1182;59573;-69
2021/09/10 04:44:48;;;;;;;4.90;2.70;;;;;;;8.92;73.46;97793.20;116281;1181;59541;-69
2021/09/10 04:47:19;;;;;;;5.50;3.70;;;;;;;9.32;73.27;97793.86;116258;1182;70692;-66
2021/09/10 04:49:48;;;;;;;6.40;3.90;;;;;;;9.62;72.18;97796.00;116213;1181;68467;-69
2021/09/10 04:52:18;;;;;;;9.40;5.00;;;;;;;9.81;71.75;97794.96;116194;1181;68454;-67
2021/09/10 04:54:48;;;;;;;7.30;4.60;;;;;;;9.98;68.96;97795.30;116242;1181;59525;-67
2021/09/10 04:57:17;;;;;;;7.60;4.40;;;;;;;10.12;68.76;97796.63;116296;1181;59524;-68
2021/09/10 04:59:47;;;;;;;6.50;4.90;;;;;;;10.39;69.34;97798.92;116171;1181;71600;-67
2021/09/10 05:02:16;;;;;;;9.30;5.20;;;;;;;10.76;67.72;97801.00;116275;1182;69205;-68
2021/09/10 05:04:47;;;;;;;9.40;5.30;;;;;;;11.06;67.18;97797.09;116209;1182;68413;-67
2021/09/10 05:07:17;;;;;;;6.90;4.80;;;;;;;11.26;65.40;97796.91;116155;1183;59647;-68
2021/09/10 05:09:47;;;;;;;6.60;4.30;;;;;;;11.40;65.23;97796.21;116277;1182;59527;-68
2021/09/10 05:12:17;;;;;;;5.70;3.80;;;;;;;11.71;65.55;97801.05;116281;1182;70706;-67
2021/09/10 05:14:51;;;;;;;8.50;5.40;;;;;;;12.15;66.40;97805.44;116324;1181;68458;-67
2021/09/10 05:17:21;;;;;;;7.30;4.20;;;;;;;12.51;62.25;97803.14;116309;1182;69235;-68
2021/09/10 05:19:51;;;;;;;5.60;3.60;;;;;;;12.94;63.35;97802.11;116222;1181;59610;-66
2021/09/10 05:22:20;;;;;;;11.30;6.00;;;;;;;13.39;63.07;97799.58;116250;1181;59543;-68
2021/09/10 05:24:50;;;;;;;9.20;4.80;;;;;;;13.78;61.03;97803.89;116278;1179;71356;-68
2021/09/10 05:27:19;;;;;;;6.30;4.10;;;;;;;13.99;60.90;97805.55;116290;1182;68443;-68
2021/09/10 05:29:49;;;;;;;13.90;7.00;;;;;;;14.04;57.70;97804.58;116273;1181;67580;-68
2021/09/10 05:32:19;;;;;;;11.70;5.90;;;;;;;14.16;57.40;97808.13;116251;1182;59472;-67
2021/09/10 05:34:48;;;;;;;12.00;6.60;;;;;;;14.43;58.50;97805.27;116343;1182;59532;-66
2021/09/10 05:37:17;;;;;;;16.00;7.20;;;;;;;14.56;55.24;97804.97;116303;1182;70840;-68
2021/09/10 05:39:46;;;;;;;15.00;7.10;;;;;;;14.77;56.99;97804.41;116332;1182;69265;-68
2021/09/10 05:42:15;;;;;;;8.40;4.80;;;;;;;15.15;57.55;97797.81;116179;1184;69053;-68
2021/09/10 05:44:45;;;;;;;11.90;6.40;;;;;;;15.61;55.63;97799.51;116268;1182;59943;-68
2021/09/10 05:47:14;;;;;;;10.60;5.10;;;;;;;15.97;56.24;97803.01;116277;1178;59552;-68
2021/09/10 05:49:44;;;;;;;10.10;6.60;;;;;;;16.29;54.42;97804.95;116250;1182;71283;-68
2021/09/10 05:52:13;;;;;;;11.60;7.50;;;;;;;16.53;54.93;97803.70;116261;1182;69292;-71
2021/09/10 05:54:42;;;;;;;7.90;5.60;;;;;;;16.65;52.28;97802.16;116356;1182;69033;-69
2021/09/10 05:57:11;;;;;;;13.60;9.30;;;;;;;16.87;53.84;97799.89;116361;1178;59524;-67
2021/09/10 05:59:40;;;;;;;7.00;5.40;;;;;;;17.03;53.33;97798.74;116294;1182;59500;-67
2021/09/10 06:02:09;;;;;;;9.70;7.30;;;;;;;17.29;53.25;97802.46;116215;1182;71174;-70
2021/09/10 06:04:39;;;;;;;;;;;;;;;17.53;52.19;97801.96;116337;1182;68996;-68
2021/09/10 06:07:08;;;;;;;10.20;7.70;;;;;;;17.64;51.04;97799.10;116229;1181;69085;-66
2021/09/10 06:09:37;;;;;;;12.60;8.40;;;;;;;17.54;50.26;97796.77;116172;1181;59543;-67
2021/09/10 06:12:07;;;;;;;11.00;7.80;;;;;;;17.72;50.15;97799.98;116239;1181;59531;-69
2021/09/10 06:14:36;;;;;;;11.40;7.20;;;;;;;18.01;49.99;97797.92;116240;1181;71375;-68
2021/09/10 06:17:06;;;;;;;16.50;7.90;;;;;;;17.90;48.74;97797.52;116267;1181;69715;-69
2021/09/10 06:19:35;;;;;;;10.70;7.20;;;;;;;17.93;48.85;97799.75;116168;1181;69302;-69
2021/09/10 06:22:04;;;;;;;8.60;6.40;;;;;;;18.30;48.99;97803.34;116225;1179;59537;-69
2021/09/10 06:24:34;;;;;;;8.70;5.20;;;;;;;19.00;48.40;97803.09;116252;1181;59494;-69
2021/09/10 06:27:03;;;;;;;10.80;5.90;;;;;;;19.45;45.78;97804.02;116223;1182;71144;-67
2021/09/10 06:29:33;;;;;;;;;;;;;;;19.98;45.45;97807.16;116287;1182;68227;-67
2021/09/10 06:32:02;;;;;;;8.90;6.00;;;;;;;20.39;43.42;97805.82;116231;1183;69707;-68
2021/09/10 06:34:31;;;;;;;;;;;;;;;20.97;44.80;97806.27;116232;1182;59553;-65
2021/09/10 06:37:01;;;;;;;7.50;5.20;;;;;;;21.49;40.23;97805.05;116281;1182;59613;-69
2021/09/10 06:39:30;;;;;;;6.80;4.40;;;;;;;21.69;38.78;97801.02;116276;1182;70667;-69
2021/09/10 06:42:00;;;;;;;7.30;4.00;;;;;;;22.09;39.86;97806.67;116217;1183;69242;-68
2021/09/10 06:44:30;;;;;;;5.40;3.70;;;;;;;22.55;37.53;97805.73;116206;1182;67497;-68
2021/09/10 06:46:59;;;;;;;6.50;4.10;;;;;;;22.59;37.03;97805.23;116214;1179;59531;-68
2021/09/10 06:49:28;;;;;;;7.80;3.90;;;;;;;22.92;36.97;97808.02;116256;1182;59536;-67
2021/09/10 06:52:03;;;;;;;5.40;3.00;;;;;;;23.06;34.82;97807.52;116203;1182;72664;-69
2021/09/10 06:54:31;;;;;;;6.40;2.90;;;;;;;23.31;36.39;97808.20;116344;1182;69219;-67
2021/09/10 06:57:00;;;;;;;9.50;3.90;;;;;;;23.41;34.51;97808.70;116340;1179;69353;-69
2021/09/10 06:59:29;;;;;;;5.00;3.10;;;;;;;23.44;34.19;97806.50;116194;1182;59542;-67
2021/09/10 07:01:59;;;;;;;;;;;;;;;24.20;35.33;97811.16;116273;1181;59492;-66
2021/09/10 07:04:29;;;;;;;6.00;3.60;;;;;;;24.46;32.14;97808.52;116238;1182;71221;-69
2021/09/10 07:06:58;;;;;;;7.00;3.90;;;;;;;24.51;33.20;97811.73;116368;1181;69156;-68
2021/09/10 07:09:27;;;;;;;4.50;2.70;;;;;;;24.05;31.99;97811.20;116293;1182;69708;-67
2021/09/10 07:11:56;;;;;;;4.70;2.70;;;;;;;23.86;32.59;97811.92;116350;1181;59555;-69
2021/09/10 07:14:25;;;;;;;3.90;2.40;;;;;;;24.49;32.39;97813.15;116348;1180;59511;-67
2021/09/10 07:16:54;;;;;;;3.70;2.30;;;;;;;24.80;32.72;97812.99;116347;1181;71367;-67
2021/09/10 07:19:23;;;;;;;5.20;3.20;;;;;;;25.13;32.22;97813.25;116322;1179;69099;-67
2021/09/10 07:21:52;;;;;;;6.10;3.20;;;;;;;24.77;30.88;97813.45;116343;1182;69022;-69
2021/09/10 07:24:21;;;;;;;4.60;3.20;;;;;;;23.83;31.69;97808.58;116313;1182;59585;-69
2021/09/10 07:26:51;;;;;;;5.10;3.30;;;;;;;23.37;33.42;97811.39;116339;1182;59574;-69
2021/09/10 07:29:23;;;;;;;5.40;2.80;;;;;;;23.12;33.52;97811.92;116262;1182;70709;-67
2021/09/10 07:31:53;;;;;;;9.90;3.90;;;;;;;23.06;33.82;97809.95;116380;1181;68223;-66
2021/09/10 07:34:22;;;;;;;4.90;3.40;;;;;;;21.69;35.72;97811.42;116326;1179;69183;-68
2021/09/10 07:36:52;;;;;;;5.70;3.60;;;;;;;22.09;35.43;97809.95;116280;1180;59499;-69
2021/09/10 07:39:21;;;;;;;6.70;3.90;;;;;;;21.61;36.19;97811.61;116326;1181;59509;-66
2021/09/10 07:41:50;;;;;;;4.90;3.60;;;;;;;21.29;37.22;97809.38;116354;1182;70627;-68
2021/09/10 07:44:19;;;;;;;4.30;3.00;;;;;;;21.03;37.64;97813.60;116298;1182;69290;-67
2021/09/10 07:46:53;;;;;;;6.60;3.80;;;;;;;21.28;37.02;97813.66;116344;1182;69222;-67
2021/09/10 07:49:22;;;;;;;3.10;2.40;;;;;;;21.52;36.94;97812.66;116333;1179;59938;-69
2021/09/10 07:51:51;;;;;;;5.90;3.10;;;;;;;22.27;36.03;97810.20;116351;1181;59546;-67
2021/09/10 07:54:20;;;;;;;3.30;2.80;;;;;;;22.80;35.06;97812.45;116354;1182;69568;-68
2021/09/10 07:56:49;;;;;;;6.00;3.40;;;;;;;23.29;33.97;97808.61;116318;1182;68548;-68
2021/09/10 07:59:18;;;;;;;4.10;3.10;;;;;;;22.35;33.74;97808.91;116238;1182;69038;-69
2021/09/10 08:01:47;;;;;;;5.40;4.50;;;;;;;22.70;33.40;97812.42;116327;1182;59537;-66
2021/09/10 08:04:16;;;;;;;6.70;3.80;;;;;;;22.73;33.17;97811.52;116331;1182;59578;-68
2021/09/10 08:06:45;;;;;;;6.20;4.00;;;;;;;22.51;33.25;97812.94;116372;1182;71350;-69
2021/09/10 08:09:14;;;;;;;4.00;2.80;;;;;;;22.81;33.08;97812.50;116350;1180;68425;-66
2021/09/10 08:11:43;;;;;;;6.80;3.10;;;;;;;23.45;32.27;97810.33;116338;1182;68452;-67
2021/09/10 08:14:12;;;;;;;5.50;4.00;;;;;;;23.54;31.15;97809.61;116364;1179;59556;-68
2021/09/10 08:16:41;;;;;;;4.60;3.40;;;;;;;23.61;31.42;97807.14;116355;1179;59501;-70
2021/09/10 08:19:10;;;;;;;6.60;3.40;;;;;;;24.01;31.26;97804.59;116328;1182;69798;-68
2021/09/10 08:21:45;;;;;;;6.30;4.20;;;;;;;24.50;30.39;97802.55;116299;1182;68753;-66
2021/09/10 08:24:14;;;;;;;7.00;4.10;;;;;;;24.63;30.01;97799.68;116330;1182;68228;-68
2021/09/10 08:26:42;;;;;;;3.90;2.80;;;;;;;25.09;30.06;97795.55;116333;1182;59546;-68
2021/09/10 08:29:11;;;;;;;4.50;3.40;;;;;;;24.97;29.41;97794.86;116370;1179;59517;-67
2021/09/10 08:31:41;;;;;;;5.20;3.40;;;;;;;25.00;29.69;97792.11;116338;1182;70561;-67
2021/09/10 08:34:11;;;;;;;3.50;2.80;;;;;;;25.56;29.60;97787.30;116348;1182;69272;-68
2021/09/10 08:36:40;;;;;;;5.00;3.80;;;;;;;26.05;28.33;97785.55;116313;1179;67496;-66
2021/09/10 08:39:09;;;;;;;4.10;3.00;;;;;;;25.98;28.89;97783.75;116342;1182;59536;-68
2021/09/10 08:41:39;;;;;;;5.10;3.40;;;;;;;26.29;28.43;97781.01;116336;1182;59498;-67
2021/09/10 08:44:08;;;;;;;5.20;3.60;;;;;;;26.11;27.97;97781.08;116284;1182;70914;-66
2021/09/10 08:46:38;;;;;;;;;;;;;;;25.81;28.32;97780.05;116359;1178;68500;-66
2021/09/10 08:49:14;;;;;;;3.80;2.50;;;;;;;26.33;28.35;97781.56;116321;1182;68238;-66
2021/09/10 08:51:43;;;;;;;3.80;2.60;;;;;;;27.12;27.04;97781.66;116311;1182;59501;-66
2021/09/10 08:54:12;;;;;;;4.80;3.20;;;;;;;27.14;26.47;97772.78;116329;1179;59517;-68
2021/09/10 08:56:41;;;;;;;4.80;3.20;;;;;;;27.08;26.34;97771.02;116364;1181;71384;-69
2021/09/10 08:59:15;;;;;;;6.30;4.00;;;;;;;27.13;26.02;97769.84;116370;1182;67924;-67
2021/09/10 09:01:51;;;;;;;3.40;2.80;;;;;;;26.86;26.71;97766.91;116306;1179;69242;-66
2021/09/10 09:04:23;;;;;;;4.60;3.00;;;;;;;27.69;26.18;97767.43;116258;1179;59551;-68
2021/09/10 09:06:53;;;;;;;3.80;2.60;;;;;;;28.13;25.36;97764.99;116309;1177;59574;-69
2021/09/10 09:09:42;;;;;;;4.70;3.00;;;;;;;28.72;25.36;97768.33;116341;1179;71377;-66
2021/09/10 09:12:15;;;;;;;6.40;3.40;;;;;;;29.43;24.08;97761.80;116316;1179;68975;-69
2021/09/10 09:15:00;;;;;;;5.00;3.00;;;;;;;29.27;23.29;97761.70;116271;1181;68476;-69
2021/09/10 09:17:32;;;;;;;4.30;3.20;;;;;;;29.70;22.63;97761.52;116273;1182;59479;-68
2021/09/10 09:20:26;;;;;;;2.80;2.30;;;;;;;29.56;23.25;97758.89;116230;1180;59564;-67
2021/09/10 09:23:06;;;;;;;6.00;3.50;;;;;;;29.55;22.76;97754.62;116212;1182;71826;-67
2021/09/10 09:25:39;;;;;;;4.60;3.20;;;;;;;29.28;23.32;97756.05;116325;1182;69112;-68
2021/09/10 09:28:24;;;;;;;4.80;2.70;;;;;;;29.70;23.21;97750.73;116258;1181;69347;-67
2021/09/10 09:31:00;;;;;;;3.90;2.80;;;;;;;30.26;23.02;97751.98;116295;1181;59565;-69
2021/09/10 09:33:32;;;;;;;5.00;3.50;;;;;;;30.63;22.66;97749.93;116289;1179;59543;-68
2021/09/10 09:36:03;;;;;;;4.50;3.00;;;;;;;30.82;22.15;97750.83;116290;1182;71336;-71
2021/09/10 09:38:35;;;;;;;6.70;4.20;;;;;;;30.67;22.52;97748.90;116279;1181;68472;-70
2021/09/10 09:41:10;;;;;;;6.10;3.70;;;;;;;29.25;23.66;97749.48;116339;1181;68579;-66
2021/09/10 09:43:43;;;;;;;7.80;3.80;;;;;;;29.46;23.58;97748.59;116295;1178;59542;-68
2021/09/10 09:46:15;;;;;;;5.60;3.30;;;;;;;29.48;23.34;97747.74;116379;1181;59523;-70
2021/09/10 09:48:50;;;;;;;5.30;4.20;;;;;;;29.70;23.66;97742.59;116382;1178;71465;-68
2021/09/10 09:51:21;;;;;;;5.80;3.70;;;;;;;28.85;24.67;97743.72;116341;1182;68500;-68
2021/09/10 09:53:50;;;;;;;5.30;4.10;;;;;;;28.65;24.79;97739.02;116374;1178;69197;-67
2021/09/10 09:56:24;;;;;;;4.40;3.30;;;;;;;27.83;25.80;97737.49;116333;1181;60003;-68
2021/09/10 09:58:54;;;;;;;5.40;4.20;;;;;;;28.74;24.96;97731.14;116380;1179;59537;-69
2021/09/10 10:01:24;;;;;;;4.90;2.80;;;;;;;28.83;24.72;97728.75;116377;1181;71431;-67
2021/09/10 10:03:53;;;;;;;7.10;4.90;;;;;;;29.60;24.79;97722.30;116318;1181;69505;-69
2021/09/10 10:06:25;;;;;;;6.80;4.50;;;;;;;29.68;24.75;97721.03;116362;1181;69247;-71
2021/09/10 10:09:14;;;;;;;4.90;3.70;;;;;;;29.96;24.12;97720.54;116307;1179;59521;-72
2021/09/10 10:11:46;;;;;;;5.70;3.50;;;;;;;30.01;23.30;97717.95;116332;1181;59555;-67
2021/09/10 10:14:33;;;;;;;7.30;5.40;;;;;;;30.67;23.13;97717.39;116319;1181;70368;-67
2021/09/10 10:17:05;;;;;;;4.60;3.30;;;;;;;31.17;23.17;97713.19;116352;1181;67259;-70
2021/09/10 10:19:36;;;;;;;7.50;4.90;;;;;;;31.98;23.18;97711.93;116273;1181;68243;-67
2021/09/10 10:22:07;;;;;;;5.40;3.50;;;;;;;32.33;22.67;97712.95;116304;1181;59526;-68
2021/09/10 10:24:52;;;;;;;6.50;4.60;;;;;;;33.05;21.81;97709.94;116355;1181;59540;-69
2021/09/10 10:27:40;;;;;;;6.80;4.40;;;;;;;32.62;20.37;97714.65;116273;1183;71961;-71
2021/09/10 10:30:18;;;;;;;5.30;3.90;;;;;;;32.84;20.75;97712.38;116304;1181;68970;-70
2021/09/10 10:32:50;;;;;;;7.20;4.60;;;;;;;33.35;20.85;97706.10;116310;1182;69828;-67
2021/09/10 10:35:40;;;;;;;6.30;4.70;;;;;;;33.53;19.45;97708.27;116324;1182;59552;-68
2021/09/10 10:38:11;;;;;;;6.70;4.30;;;;;;;32.70;20.31;97709.09;116344;1181;59461;-70
2021/09/10 10:40:42;;;;;;;7.00;4.60;;;;;;;33.38;19.48;97702.24;116330;1179;70469;-68
2021/09/10 10:43:26;;;;;;;6.70;4.30;;;;;;;33.05;19.49;97700.30;116383;1182;69631;-67
2021/09/10 10:46:03;;;;;;;8.60;5.10;;;;;;;32.40;20.42;97699.48;116271;1179;69181;-68
2021/09/10 10:48:33;;;;;;;5.40;3.70;;;;;;;32.88;20.44;97691.91;116362;1179;59485;-69
2021/09/10 10:51:23;;;;;;;6.30;5.10;;;;;;;33.90;19.82;97689.92;116340;1180;59485;-67
2021/09/10 10:53:52;;;;;;;7.40;5.80;;;;;;;33.70;18.76;97688.80;116312;1178;71298;-70
2021/09/10 10:56:24;;;;;;;9.70;6.30;;;;;;;32.15;20.34;97689.30;116332;1181;69513;-67
2021/09/10 10:59:21;;;;;;;6.30;4.10;;;;;;;31.65;20.56;97683.36;116275;1181;69795;-68
2021/09/10 11:02:15;;;;;;;10.30;6.40;;;;;;;31.61;20.80;97676.91;116321;1181;59581;-68
2021/09/10 11:04:49;;;;;;;8.50;5.50;;;;;;;32.19;20.61;97677.36;116363;1179;59533;-68
2021/09/10 11:07:26;;;;;;;8.90;5.60;;;;;;;33.29;20.16;97669.89;116375;1182;71370;-67
2021/09/10 11:10:18;;;;;;;7.30;5.70;;;;;;;33.69;19.16;97668.05;116345;1178;70192;-67
2021/09/10 11:12:49;;;;;;;8.40;5.50;;;;;;;34.08;18.39;97668.59;116354;1181;69063;-68
2021/09/10 11:15:27;;;;;;;5.80;4.60;;;;;;;34.42;17.93;97665.60;116376;1181;59954;-70
2021/09/10 11:18:11;;;;;;;4.50;3.30;;;;;;;35.44;17.45;97659.52;116304;1181;59533;-69
2021/09/10 11:20:46;;;;;;;4.50;3.20;;;;;;;36.20;17.36;97659.80;116310;1181;70514;-71
2021/09/10 11:23:28;;;;;;;5.00;3.30;;;;;;;37.10;16.08;97650.55;116360;1181;68554;-65
2021/09/10 11:25:58;;;;;;;4.70;3.60;;;;;;;37.87;15.22;97650.33;116299;1179;68417;-71
2021/09/10 11:28:30;;;;;;;3.60;2.60;;;;;;;38.19;14.05;97650.15;116282;1180;59502;-68
2021/09/10 11:31:01;;;;;;;4.20;2.70;;;;;;;38.47;14.59;97645.77;116323;1178;59620;-74
2021/09/10 11:33:41;;;;;;;3.90;3.10;;;;;;;39.02;13.76;97645.00;116310;1181;71228;-66
2021/09/10 11:36:22;;;;;;;5.00;3.20;;;;;;;39.26;13.57;97641.20;116323;1181;68666;-68
2021/09/10 11:39:07;;;;;;;5.10;3.60;;;;;;;39.66;13.79;97637.76;116299;1181;68480;-68
2021/09/10 11:41:36;;;;;;;5.50;4.00;;;;;;;40.06;13.73;97637.60;116317;1181;59546;-66
2021/09/10 11:44:08;;;;;;;3.60;3.00;;;;;;;40.43;13.07;97634.89;116354;1179;59517;-68
2021/09/10 11:46:40;;;;;;;4.60;3.60;;;;;;;40.72;12.67;97631.98;116367;1178;71040;-68
2021/09/10 11:49:10;;;;;;;4.00;3.20;;;;;;;40.55;12.22;97628.01;116344;1181;68467;-67
2021/09/10 11:51:48;;;;;;;4.30;2.90;;;;;;;40.53;12.77;97623.45;116303;1181;68465;-66